Pagina principale
METAR-TAF:

METAR-TAF

Aeroporti :

Olbia, Italia

Aeroporto di Olbia-Costa Smeralda

latitudine: 40-54N, longitudine: 009-31E, altezza: 11 m

Osservazione

Il bollettino è stato emesso 16 minuti fa, alle 20:20 UTC
Vento 15 kt da ovest/sud-ovest
Temperature 23°C
Umidità 61%
Pressione 1008 hPa
Visibilità 10 km o più
Poco nuvoloso ad un'altezza di 3000 ft

METAR: LIEO 252020Z 25015KT 9999 FEW030 23/15 Q1008

Ora: 22:36 (20:36 UTC)

Previsione

Il bollettino è stato emesso 3 ore e 36 minuti fa, alle 17:00 UTC
Previsione valida dal 25 alle 18 UTC al 26 alle 18 UTC
Vento 18 kt da ovest/sud-ovest
Visibilità 10 km o più
Nubi sparse ad un'altezza di 3000 ft
Temporaneamente
dal 25 alle 18 UTC al 25 alle 20 UTC
Vento 22 kt da ovest/sud-ovest con raffiche fino a 32 kt

TAF: LIEO 251700Z 2518/2618 25018KT 9999 SCT030 TEMPO 2518/2520 25022G32KT

Osservazioni e previsioni meteorologiche di più di 4000 aeroporti (messaggi METAR e TAF).

Le stazioni disponibili sono rappresentate dai dischi gialli e rossi sulla carta.

Puntare il mouse per vedere il nome della stazione.

Clicca sopra per visualizzare le osservazioni e previsioni meteorologiche.

Per cambiare la mappa : fare clic sui pulsanti verdi con una croce nera per ingrandire, il pulsante verde con un trattino per diminuire, o sulla freccia verde per le mappe adiacenti.


METAR-TAF: